EZY3131 EDDG-EDLW
Flight info
| Callsign | EZY3131 |
|---|---|
| Flight time | N/A |
| Altitude | 7000 |
| Route | DOMEG1E DOMEG DOMEG2A |
| Aircraft | A320/M-SDE2E3FGHIJ1RWXY/LB1 |
Departure
| Time | 2026-04-21 19:34 |
|---|---|
| Airport | Münster Osnabrück Airport (EDDG) |
Arrival
| Time | N/A |
|---|---|
| Airport | Dortmund Airport (EDLW) |
| Time | Latitude | Longitude | Altitude | Speed | Heading |
|---|---|---|---|---|---|
| 2026-04-21 18:57 | 52.13116 | 7.69135 | 171 ft | 0 kts | 175° |
| 2026-04-21 19:29 | 52.13126 | 7.69133 | 171 ft | 2 kts | 202° |
| 2026-04-21 19:29 | 52.13117 | 7.69117 | 171 ft | 24 kts | 219° |
| 2026-04-21 19:29 | 52.13091 | 7.69080 | 171 ft | 1 kts | 226° |
| 2026-04-21 19:29 | 52.13093 | 7.69082 | 171 ft | 0 kts | 255° |
| 2026-04-21 19:30 | 52.13118 | 7.69025 | 170 ft | 14 kts | 319° |
| 2026-04-21 19:30 | 52.13192 | 7.68933 | 170 ft | 11 kts | 338° |
| 2026-04-21 19:30 | 52.13291 | 7.68871 | 168 ft | 17 kts | 334° |
| 2026-04-21 19:30 | 52.13339 | 7.68810 | 169 ft | 7 kts | 294° |
| 2026-04-21 19:31 | 52.13333 | 7.68715 | 171 ft | 15 kts | 258° |
| 2026-04-21 19:31 | 52.13282 | 7.68457 | 172 ft | 31 kts | 250° |
| 2026-04-21 19:31 | 52.13218 | 7.68164 | 172 ft | 32 kts | 252° |
| 2026-04-21 19:31 | 52.13156 | 7.67862 | 169 ft | 18 kts | 252° |
| 2026-04-21 19:32 | 52.13109 | 7.67627 | 164 ft | 24 kts | 251° |
| 2026-04-21 19:32 | 52.13051 | 7.67358 | 165 ft | 26 kts | 251° |
| 2026-04-21 19:32 | 52.13031 | 7.67242 | 167 ft | 8 kts | 263° |
| 2026-04-21 19:32 | 52.13034 | 7.67169 | 168 ft | 6 kts | 278° |
| 2026-04-21 19:33 | 52.13042 | 7.67129 | 168 ft | 5 kts | 295° |
| 2026-04-21 19:33 | 52.13103 | 7.67055 | 167 ft | 14 kts | 347° |
| 2026-04-21 19:33 | 52.13180 | 7.67104 | 166 ft | 8 kts | 66° |
| 2026-04-21 19:33 | 52.13209 | 7.67247 | 165 ft | 33 kts | 71° |
| 2026-04-21 19:34 | 52.13413 | 7.68226 | 172 ft | 150 kts | 71° |
| 2026-04-21 19:34 | 52.13807 | 7.70141 | 596 ft | 203 kts | 72° |
| 2026-04-21 19:34 | 52.14273 | 7.72449 | 1296 ft | 224 kts | 71° |
| 2026-04-21 19:34 | 52.14760 | 7.74728 | 1851 ft | 196 kts | 70° |
| 2026-04-21 19:35 | 52.15240 | 7.76977 | 2377 ft | 225 kts | 71° |
| 2026-04-21 19:35 | 52.14954 | 7.82072 | 2854 ft | 239 kts | 126° |
| 2026-04-21 19:35 | 52.13651 | 7.83698 | 2723 ft | 239 kts | 155° |
| 2026-04-21 19:36 | 52.12087 | 7.84646 | 2674 ft | 240 kts | 162° |
| 2026-04-21 19:36 | 52.10475 | 7.85341 | 2673 ft | 240 kts | 172° |
| 2026-04-21 19:36 | 52.08820 | 7.85265 | 2671 ft | 239 kts | 193° |
| 2026-04-21 19:36 | 52.07251 | 7.84392 | 2672 ft | 238 kts | 203° |
| 2026-04-21 19:37 | 52.05732 | 7.83307 | 2671 ft | 241 kts | 205° |
| 2026-04-21 19:37 | 52.04147 | 7.82145 | 2657 ft | 256 kts | 205° |
| 2026-04-21 19:37 | 52.02501 | 7.80950 | 2723 ft | 263 kts | 204° |
| 2026-04-21 19:37 | 52.00790 | 7.79721 | 3289 ft | 272 kts | 204° |
| 2026-04-21 19:38 | 51.99077 | 7.78499 | 4405 ft | 267 kts | 204° |
| 2026-04-21 19:38 | 51.97378 | 7.77293 | 5477 ft | 266 kts | 204° |
| 2026-04-21 19:38 | 51.95676 | 7.76086 | 6216 ft | 269 kts | 204° |
| 2026-04-21 19:38 | 51.93954 | 7.74869 | 6591 ft | 271 kts | 204° |
| 2026-04-21 19:39 | 51.92223 | 7.73646 | 6674 ft | 272 kts | 204° |
| 2026-04-21 19:39 | 51.90482 | 7.72418 | 6675 ft | 274 kts | 204° |
| 2026-04-21 19:39 | 51.88735 | 7.71187 | 6674 ft | 274 kts | 204° |
| 2026-04-21 19:39 | 51.86984 | 7.69955 | 6674 ft | 274 kts | 204° |
| 2026-04-21 19:40 | 51.85234 | 7.68724 | 6674 ft | 274 kts | 204° |
| 2026-04-21 19:40 | 51.83482 | 7.67493 | 6674 ft | 274 kts | 204° |